Terminal Aerodrome Forecast
Issued by NWS

Home | Current Version | Previous Version | Text Only | Print | Product List | Glossary On
Versions: 1 2 3 4 5 6 7 8 9 10 11 12 13 14 15 16 17 18 19 20 21 22 23 24 25
496
FTUS45 KABQ 201738
TAFGUP
TAF
KGUP 201738Z 2018/2118 24015KT P6SM -SN SCT015 BKN040
      TEMPO 2020/2023 2SM -SN BR BKN015
     FM210000 24016G23KT 3SM -SHSN BKN015 OVC025=

USA.gov is the U.S. government's official web portal to all federal, state and local government web resources and services.